createdAt,value
2023-12-12T00:01:25.234Z,72.44
2023-12-12T00:06:30.256Z,72.18
2023-12-12T00:11:32.553Z,72.39
2023-12-12T00:16:34.810Z,72.26
2023-12-12T00:21:37.019Z,72.44
2023-12-12T00:26:39.175Z,72.29
2023-12-12T00:31:41.285Z,72.60
2023-12-12T00:36:43.354Z,73.92
2023-12-12T00:41:50.051Z,72.81
2023-12-12T00:46:56.333Z,73.00
2023-12-12T00:51:58.549Z,72.94
2023-12-12T00:57:00.577Z,73.69
2023-12-12T01:02:03.073Z,72.65
2023-12-12T01:07:05.132Z,73.58
2023-12-12T01:12:10.420Z,72.95
2023-12-12T01:17:12.479Z,72.92
2023-12-12T01:22:14.398Z,73.79
2023-12-12T01:27:16.510Z,72.73
2023-12-12T01:32:18.348Z,73.70
2023-12-12T01:37:20.740Z,73.09
2023-12-12T01:42:26.125Z,72.79
2023-12-12T01:47:28.765Z,72.56
2023-12-12T01:52:31.480Z,72.82
2023-12-12T01:57:33.694Z,73.00
2023-12-12T02:05:14.394Z,72.97
2023-12-12T02:10:17.259Z,73.22
2023-12-12T02:15:20.574Z,73.09
2023-12-12T02:20:23.075Z,73.32
2023-12-12T02:25:25.578Z,73.05
2023-12-12T02:30:27.935Z,72.97
2023-12-12T02:35:30.904Z,72.60
2023-12-12T02:40:33.408Z,72.85
2023-12-12T02:45:43.360Z,72.76
2023-12-12T02:50:46.037Z,72.88
2023-12-12T02:55:55.810Z,72.98
2023-12-12T03:00:57.921Z,72.73
2023-12-12T03:06:00.361Z,72.60
2023-12-12T03:11:03.046Z,72.87
2023-12-12T03:16:14.421Z,73.00
2023-12-12T03:21:16.775Z,73.16
2023-12-12T03:26:19.074Z,72.67
2023-12-12T03:31:21.083Z,74.04
2023-12-12T03:36:23.264Z,73.05
2023-12-12T03:41:25.577Z,73.19
2023-12-12T03:46:27.787Z,73.21
2023-12-12T03:51:29.979Z,73.18
2023-12-12T03:56:31.958Z,74.51
2023-12-12T04:01:37.921Z,73.64
2023-12-12T04:06:48.069Z,73.92
2023-12-12T04:11:50.155Z,73.70
2023-12-12T04:16:52.258Z,74.53
2023-12-12T04:21:57.282Z,73.54
2023-12-12T04:27:00.223Z,73.82
2023-12-12T04:32:02.512Z,73.88
2023-12-12T04:37:05.103Z,73.92
2023-12-12T04:42:08.528Z,73.36
2023-12-12T04:47:11.158Z,73.42
2023-12-12T04:52:13.578Z,72.92
2023-12-12T04:57:17.065Z,72.87
2023-12-12T05:08:44.305Z,72.63
2023-12-12T05:13:49.966Z,73.11
2023-12-12T05:18:53.176Z,72.87
2023-12-12T05:24:00.933Z,73.08
2023-12-12T05:29:03.482Z,73.11
2023-12-12T05:34:06.394Z,73.13
2023-12-12T05:39:12.391Z,72.99
2023-12-12T05:44:14.660Z,73.21
2023-12-12T05:49:16.836Z,72.79
2023-12-12T05:54:20.758Z,73.62
2023-12-12T05:59:23.896Z,73.15
2023-12-12T06:04:25.804Z,73.92
2023-12-12T06:09:28.385Z,73.30
2023-12-12T06:14:30.541Z,73.13
2023-12-12T06:19:33.001Z,73.92
2023-12-12T06:24:35.334Z,73.94
2023-12-12T06:29:37.888Z,73.48
2023-12-12T06:34:41.309Z,73.16
2023-12-12T06:39:43.618Z,73.12
2023-12-12T06:44:46.934Z,73.25
2023-12-12T06:49:49.278Z,73.37
2023-12-12T06:54:51.435Z,72.96
2023-12-12T06:59:53.701Z,73.56
2023-12-12T07:04:55.919Z,72.89
2023-12-12T07:10:00.785Z,72.66
2023-12-12T07:15:03.616Z,73.11
2023-12-12T07:20:08.454Z,72.79
2023-12-12T07:25:10.845Z,72.43
2023-12-12T07:30:13.490Z,72.36
2023-12-12T07:35:17.561Z,72.48
2023-12-12T07:40:31.489Z,71.83
2023-12-12T07:45:33.971Z,71.67
2023-12-12T07:50:36.254Z,71.49
2023-12-12T07:55:38.768Z,71.28
2023-12-12T08:00:44.127Z,71.09
2023-12-12T08:05:54.903Z,70.36
2023-12-12T08:10:57.391Z,69.51
2023-12-12T08:15:59.751Z,64.67
2023-12-12T08:21:02.089Z,61.39
2023-12-12T08:31:27.096Z,61.29
2023-12-12T08:36:35.800Z,62.87
2023-12-12T08:41:41.249Z,63.69
2023-12-12T08:46:45.322Z,64.15
2023-12-12T08:51:49.108Z,64.00
2023-12-12T08:56:54.262Z,64.30
2023-12-12T09:01:59.519Z,63.55
2023-12-12T09:07:04.397Z,63.40
2023-12-12T09:12:09.863Z,62.81
2023-12-12T09:17:13.096Z,62.74
2023-12-12T09:22:16.248Z,62.80
2023-12-12T09:27:18.472Z,62.45
2023-12-12T09:32:20.558Z,62.17
2023-12-12T09:37:24.026Z,62.21
2023-12-12T09:42:27.442Z,61.53
2023-12-12T09:47:30.731Z,61.37
2023-12-12T09:52:42.512Z,61.15
2023-12-12T09:57:45.320Z,60.79
2023-12-12T10:02:47.776Z,60.36
2023-12-12T10:07:58.212Z,59.99
2023-12-12T10:13:07.173Z,59.94
2023-12-12T10:18:10.242Z,59.57
2023-12-12T10:23:12.836Z,59.34
2023-12-12T10:28:15.424Z,59.29
2023-12-12T10:33:17.931Z,59.05
2023-12-12T10:38:29.875Z,58.00
2023-12-12T10:43:32.201Z,58.83
2023-12-12T10:48:35.022Z,58.50
2023-12-12T10:53:38.749Z,58.08
2023-12-12T10:58:45.360Z,57.20
2023-12-12T11:03:52.303Z,57.57
2023-12-12T11:09:00.688Z,57.67
2023-12-12T11:14:03.452Z,57.26
2023-12-12T11:19:05.704Z,57.48
2023-12-12T11:24:08.149Z,57.30
2023-12-12T11:29:15.693Z,56.23
2023-12-12T11:34:18.353Z,57.38
2023-12-12T11:39:59.123Z,55.55
2023-12-12T11:45:09.424Z,56.92
2023-12-12T11:50:19.553Z,55.80
2023-12-12T11:55:23.919Z,56.23
2023-12-12T12:00:26.370Z,56.54
2023-12-12T12:05:28.696Z,56.36
2023-12-12T12:10:31.161Z,56.49
2023-12-12T12:15:33.405Z,56.55
2023-12-12T12:20:48.185Z,55.57
2023-12-12T12:25:51.678Z,55.84
2023-12-12T12:30:55.454Z,55.76
2023-12-12T12:35:58.056Z,55.93
2023-12-12T12:41:00.819Z,55.69
2023-12-12T12:46:09.583Z,54.79
2023-12-12T12:51:14.289Z,55.52
2023-12-12T12:56:16.409Z,55.58
2023-12-12T13:01:18.542Z,55.39
2023-12-12T13:06:20.858Z,55.21
2023-12-12T13:11:23.153Z,55.10
2023-12-12T13:16:28.492Z,55.31
2023-12-12T13:21:30.993Z,55.07
2023-12-12T13:26:33.230Z,55.08
2023-12-12T13:31:35.574Z,55.19
2023-12-12T13:36:38.437Z,55.30
2023-12-12T13:41:47.885Z,55.20
2023-12-12T13:46:51.226Z,55.29
2023-12-12T13:51:53.782Z,55.24
2023-12-12T13:56:56.257Z,55.84
2023-12-12T14:02:07.606Z,55.47
2023-12-12T14:07:11.244Z,55.76
2023-12-12T14:12:16.679Z,55.23
2023-12-12T14:17:18.974Z,55.40
2023-12-12T14:22:21.284Z,55.58
2023-12-12T14:27:25.349Z,55.64
2023-12-12T14:32:27.627Z,55.81
2023-12-12T14:37:30.698Z,55.84
2023-12-12T14:42:33.445Z,56.04
2023-12-12T14:47:37.251Z,56.09
2023-12-12T14:52:45.173Z,55.90
2023-12-12T14:57:50.595Z,55.37
2023-12-12T15:02:53.649Z,55.90
2023-12-12T15:07:56.062Z,55.79
2023-12-12T15:12:58.604Z,55.75
2023-12-12T15:18:01.023Z,55.96
2023-12-12T15:23:03.694Z,56.13
2023-12-12T15:28:23.980Z,56.23
2023-12-12T15:33:37.212Z,56.66
2023-12-12T15:38:39.799Z,56.70
2023-12-12T15:43:45.334Z,57.01
2023-12-12T15:48:47.886Z,57.04
2023-12-12T15:53:51.554Z,57.22
2023-12-12T15:59:03.176Z,56.83
2023-12-12T16:04:05.911Z,57.26
2023-12-12T16:09:08.382Z,57.32
2023-12-12T16:14:13.240Z,57.23
2023-12-12T16:19:15.647Z,57.78
2023-12-12T16:24:17.845Z,57.63
2023-12-12T16:29:20.185Z,57.21
2023-12-12T16:34:22.662Z,57.61
2023-12-12T16:39:25.262Z,57.48
2023-12-12T16:44:27.365Z,57.66
2023-12-12T16:49:30.358Z,57.31
2023-12-12T16:54:32.794Z,57.52
2023-12-12T16:59:35.088Z,57.79
2023-12-12T17:04:40.444Z,58.21
2023-12-12T17:09:46.823Z,57.95
2023-12-12T17:14:51.008Z,58.10
2023-12-12T17:19:54.063Z,57.95
2023-12-12T17:24:56.879Z,58.02
2023-12-12T17:30:00.399Z,58.04
2023-12-12T17:35:06.117Z,58.03
2023-12-12T17:40:17.649Z,57.79
2023-12-12T17:45:20.256Z,58.36
2023-12-12T17:50:23.602Z,58.06
2023-12-12T17:55:25.888Z,58.25
2023-12-12T18:00:28.548Z,58.40
2023-12-12T18:05:46.015Z,58.63
2023-12-12T18:11:01.752Z,59.28
2023-12-12T18:16:09.387Z,59.92
2023-12-12T18:21:11.666Z,59.95
2023-12-12T18:26:14.284Z,59.76
2023-12-12T18:31:17.701Z,59.61
2023-12-12T18:36:19.997Z,59.75
2023-12-12T18:41:22.293Z,60.21
2023-12-12T18:46:24.523Z,60.20
2023-12-12T18:51:26.901Z,60.65
2023-12-12T18:56:32.281Z,60.76
2023-12-12T19:01:34.849Z,60.34
2023-12-12T19:06:37.078Z,60.65
2023-12-12T19:11:43.273Z,60.88
2023-12-12T19:16:48.993Z,62.05
2023-12-12T19:21:54.501Z,61.22
2023-12-12T19:26:56.820Z,61.72
2023-12-12T19:31:59.367Z,61.83
2023-12-12T19:37:02.786Z,62.36
2023-12-12T19:42:06.909Z,62.88
2023-12-12T19:47:11.106Z,63.08
2023-12-12T19:52:13.333Z,63.26
2023-12-12T19:57:43.970Z,64.40
2023-12-12T20:03:07.797Z,64.23
2023-12-12T20:08:13.396Z,64.71
2023-12-12T20:13:15.917Z,64.59
2023-12-12T20:18:20.235Z,64.84
2023-12-12T20:23:22.617Z,64.59
2023-12-12T20:28:31.623Z,64.70
2023-12-12T20:33:33.818Z,64.81
2023-12-12T20:38:38.228Z,64.70
2023-12-12T20:43:40.622Z,64.36
2023-12-12T20:48:45.861Z,64.24
2023-12-12T20:53:48.260Z,63.90
2023-12-12T20:58:51.754Z,63.35
2023-12-12T21:03:54.526Z,63.33
2023-12-12T21:08:59.412Z,63.65
2023-12-12T21:14:02.755Z,63.79
2023-12-12T21:19:07.054Z,63.23
2023-12-12T21:24:13.044Z,63.24
2023-12-12T21:29:16.209Z,63.19
2023-12-12T21:34:19.690Z,63.45
2023-12-12T21:39:23.601Z,63.55
2023-12-12T21:44:26.656Z,63.46
2023-12-12T21:49:31.526Z,63.40
2023-12-12T21:54:33.938Z,63.54
2023-12-12T21:59:39.780Z,63.85
2023-12-12T22:04:45.537Z,63.64
2023-12-12T22:10:09.481Z,64.21
2023-12-12T22:15:40.547Z,64.15
2023-12-12T22:20:45.921Z,64.17
2023-12-12T22:25:49.282Z,64.31
2023-12-12T22:30:52.378Z,63.92
2023-12-12T22:35:55.983Z,63.90
2023-12-12T22:41:00.092Z,64.21
2023-12-12T22:46:02.964Z,64.30
2023-12-12T22:51:06.920Z,64.66
2023-12-12T22:56:15.600Z,64.60
2023-12-12T23:01:27.375Z,64.87
2023-12-12T23:06:39.676Z,64.72
2023-12-12T23:11:42.284Z,64.90
2023-12-12T23:16:52.406Z,64.86
2023-12-12T23:21:54.618Z,65.00
2023-12-12T23:26:58.450Z,64.95
2023-12-12T23:32:04.405Z,64.71
2023-12-12T23:37:07.129Z,65.03
2023-12-12T23:42:10.397Z,64.90
2023-12-12T23:47:17.836Z,65.21
2023-12-12T23:52:23.163Z,65.37
2023-12-12T23:57:27.919Z,65.39
